Sweetwater, Tennessee
Current Conditions -  °F | °C
As of 8:35 PM on Wednesday 26 Nov 2014 (Local Time) from KMMI Reporting Station
Overcast Overcast  
Wind Chill: 41°   Ceiling: 6500
Heat Index: 41°   Visibility: 10mi
Dew Point: 30°   Wind: 0mph
Humidity: 65%   Direction: NA
Pressure: 30.03"   Gusts: NA
Location:  35.6°N, 84.46°W
Report Text: KMMI 270135Z AUTO 00000KT 10SM SCT055 BKN065 OVC075 05/M01 A3003 RMK
Loading
Personal Weather Stations






























Interactive Weather Map New forecast layout! Learn more

10-Day Weather Forecast

Advertisements
Track Severe Weather on mobile